createdAt,value
2018-04-10T00:02:13.552Z,78.51
2018-04-10T00:04:41.455Z,78.40
2018-04-10T00:07:09.099Z,78.25
2018-04-10T00:09:36.718Z,78.11
2018-04-10T00:12:04.303Z,78.15
2018-04-10T00:14:32.034Z,78.09
2018-04-10T00:16:59.644Z,77.84
2018-04-10T00:19:27.288Z,77.86
2018-04-10T00:21:55.048Z,77.89
2018-04-10T00:24:22.665Z,77.71
2018-04-10T00:26:50.325Z,77.63
2018-04-10T00:29:17.980Z,77.72
2018-04-10T00:31:45.896Z,77.89
2018-04-10T00:34:13.557Z,77.72
2018-04-10T00:36:41.406Z,77.56
2018-04-10T00:39:09.030Z,77.60
2018-04-10T00:41:36.705Z,77.61
2018-04-10T00:44:04.309Z,77.52
2018-04-10T00:46:31.971Z,77.53
2018-04-10T00:48:59.600Z,77.59
2018-04-10T00:51:27.291Z,77.62
2018-04-10T00:53:55.059Z,77.61
2018-04-10T00:56:22.654Z,77.52
2018-04-10T00:58:50.354Z,77.54
2018-04-10T01:01:18.254Z,77.45
2018-04-10T01:03:45.928Z,77.30
2018-04-10T01:06:13.644Z,77.18
2018-04-10T01:08:41.229Z,77.07
2018-04-10T01:11:08.854Z,77.02
2018-04-10T01:13:36.826Z,76.92
2018-04-10T01:16:04.472Z,76.88
2018-04-10T01:18:32.504Z,76.83
2018-04-10T01:21:00.152Z,76.78
2018-04-10T01:23:27.921Z,76.58
2018-04-10T01:25:55.665Z,76.39
2018-04-10T01:28:23.540Z,76.39
2018-04-10T01:30:51.538Z,76.22
2018-04-10T01:33:19.175Z,76.08
2018-04-10T01:35:46.812Z,75.97
2018-04-10T01:38:14.462Z,75.89
2018-04-10T01:40:42.400Z,75.90
2018-04-10T01:43:10.053Z,75.86
2018-04-10T01:45:37.675Z,75.80
2018-04-10T01:48:05.295Z,75.61
2018-04-10T01:50:33.023Z,75.42
2018-04-10T01:53:01.069Z,75.00
2018-04-10T01:55:28.724Z,74.80
2018-04-10T01:57:56.334Z,74.54
2018-04-10T02:00:23.947Z,73.84
2018-04-10T02:02:51.581Z,73.92
2018-04-10T02:05:19.215Z,73.47
2018-04-10T02:07:47.089Z,73.26
2018-04-10T02:10:32.056Z,73.10
2018-04-10T02:12:59.873Z,72.69
2018-04-10T02:15:27.530Z,72.40
2018-04-10T02:17:55.179Z,71.92
2018-04-10T02:20:22.787Z,71.63
2018-04-10T02:22:50.378Z,71.49
2018-04-10T02:25:18.030Z,71.48
2018-04-10T02:27:45.739Z,71.44
2018-04-10T02:30:13.514Z,71.45
2018-04-10T02:32:41.137Z,71.25
2018-04-10T02:35:08.750Z,70.94
2018-04-10T02:37:36.515Z,71.00
2018-04-10T02:40:04.145Z,70.85
2018-04-10T02:42:31.948Z,70.71
2018-04-10T02:44:59.616Z,70.62
2018-04-10T02:47:27.301Z,70.33
2018-04-10T02:49:55.034Z,70.40
2018-04-10T02:52:22.704Z,70.44
2018-04-10T02:54:50.317Z,70.39
2018-04-10T02:57:17.972Z,70.45
2018-04-10T02:59:45.604Z,70.31
2018-04-10T03:02:13.236Z,70.33
2018-04-10T03:04:41.121Z,70.34
2018-04-10T03:07:08.835Z,70.28
2018-04-10T03:09:36.520Z,70.33
2018-04-10T03:12:04.263Z,70.33
2018-04-10T03:14:31.923Z,70.44
2018-04-10T03:16:59.543Z,70.46
2018-04-10T03:19:27.260Z,70.41
2018-04-10T03:21:54.948Z,70.39
2018-04-10T03:24:22.557Z,70.50
2018-04-10T03:26:50.266Z,70.34
2018-04-10T03:29:17.867Z,70.40
2018-04-10T03:31:45.833Z,70.42
2018-04-10T03:34:13.629Z,70.50
2018-04-10T03:36:41.260Z,70.52
2018-04-10T03:39:08.956Z,70.74
2018-04-10T03:41:36.615Z,70.71
2018-04-10T03:44:04.281Z,70.75
2018-04-10T03:46:31.964Z,70.86
2018-04-10T03:48:59.589Z,71.15
2018-04-10T03:51:27.201Z,71.28
2018-04-10T03:53:54.845Z,71.08
2018-04-10T03:56:22.770Z,71.25
2018-04-10T03:58:50.407Z,71.29
2018-04-10T04:01:18.023Z,71.26
2018-04-10T04:03:45.695Z,71.39
2018-04-10T04:06:13.419Z,71.40
2018-04-10T04:08:41.033Z,71.44
2018-04-10T04:11:08.619Z,71.55
2018-04-10T04:13:36.248Z,71.61
2018-04-10T04:16:03.962Z,71.67
2018-04-10T04:18:43.286Z,71.68
2018-04-10T04:21:22.641Z,71.70
2018-04-10T04:23:50.605Z,71.68
2018-04-10T04:26:18.677Z,71.58
2018-04-10T04:28:46.293Z,71.60
2018-04-10T04:31:13.922Z,71.75
2018-04-10T04:33:41.665Z,71.78
2018-04-10T04:36:09.333Z,71.78
2018-04-10T04:38:37.292Z,71.85
2018-04-10T04:41:04.993Z,71.88
2018-04-10T04:43:32.703Z,72.00
2018-04-10T04:46:00.374Z,72.29
2018-04-10T04:48:28.306Z,72.32
2018-04-10T04:50:55.894Z,72.45
2018-04-10T04:53:23.609Z,72.41
2018-04-10T04:55:51.472Z,72.44
2018-04-10T04:58:19.127Z,72.43
2018-04-10T05:00:46.770Z,72.71
2018-04-10T05:03:14.375Z,72.67
2018-04-10T05:05:41.985Z,72.70
2018-04-10T05:08:09.734Z,72.73
2018-04-10T05:10:37.362Z,72.75
2018-04-10T05:13:04.994Z,72.87
2018-04-10T05:15:32.579Z,72.86
2018-04-10T05:18:00.221Z,72.92
2018-04-10T05:20:27.824Z,72.92
2018-04-10T05:22:55.707Z,72.96
2018-04-10T05:25:23.360Z,72.90
2018-04-10T05:27:51.180Z,72.96
2018-04-10T05:30:18.849Z,72.95
2018-04-10T05:32:46.439Z,73.00
2018-04-10T05:35:14.074Z,72.87
2018-04-10T05:37:41.732Z,72.93
2018-04-10T05:40:09.336Z,73.02
2018-04-10T05:42:37.338Z,73.10
2018-04-10T05:45:04.967Z,73.08
2018-04-10T05:47:32.561Z,73.07
2018-04-10T05:50:00.541Z,73.04
2018-04-10T05:52:35.722Z,73.10
2018-04-10T05:55:03.379Z,73.10
2018-04-10T05:57:31.106Z,73.32
2018-04-10T05:59:58.832Z,73.38
2018-04-10T06:02:26.442Z,73.37
2018-04-10T06:04:54.039Z,73.36
2018-04-10T06:07:21.660Z,73.34
2018-04-10T06:09:49.347Z,73.33
2018-04-10T06:12:16.948Z,73.24
2018-04-10T06:14:44.939Z,73.20
2018-04-10T06:17:12.573Z,73.08
2018-04-10T06:19:40.183Z,72.86
2018-04-10T06:22:08.096Z,72.97
2018-04-10T06:24:35.689Z,73.04
2018-04-10T06:27:03.458Z,73.13
2018-04-10T06:29:31.412Z,73.09
2018-04-10T06:31:59.494Z,72.82
2018-04-10T06:34:27.097Z,72.99
2018-04-10T06:36:54.744Z,72.83
2018-04-10T06:39:22.346Z,72.84
2018-04-10T06:41:49.985Z,72.74
2018-04-10T06:44:17.722Z,72.44
2018-04-10T06:46:45.394Z,72.27
2018-04-10T06:49:12.992Z,72.26
2018-04-10T06:51:40.621Z,72.04
2018-04-10T06:54:08.223Z,71.56
2018-04-10T06:56:35.839Z,71.50
2018-04-10T06:59:03.585Z,71.58
2018-04-10T07:01:31.223Z,71.56
2018-04-10T07:04:03.622Z,71.30
2018-04-10T07:06:31.325Z,70.90
2018-04-10T07:08:59.035Z,70.66
2018-04-10T07:11:26.642Z,70.59
2018-04-10T07:13:54.635Z,70.53
2018-04-10T07:16:22.639Z,70.17
2018-04-10T07:18:50.242Z,70.01
2018-04-10T07:21:17.891Z,69.78
2018-04-10T07:23:45.514Z,69.39
2018-04-10T07:26:13.107Z,69.16
2018-04-10T07:28:40.754Z,68.81
2018-04-10T07:31:08.538Z,68.65
2018-04-10T07:33:36.136Z,68.57
2018-04-10T07:36:04.039Z,68.09
2018-04-10T07:38:31.651Z,67.82
2018-04-10T07:40:59.269Z,67.96
2018-04-10T07:43:26.951Z,66.88
2018-04-10T07:45:54.531Z,66.58
2018-04-10T07:48:22.114Z,66.91
2018-04-10T07:50:49.808Z,65.72
2018-04-10T07:53:17.434Z,66.07
2018-04-10T07:55:45.014Z,65.78
2018-04-10T07:58:12.641Z,65.76
2018-04-10T08:00:40.285Z,65.60
2018-04-10T08:03:07.865Z,64.27
2018-04-10T08:05:35.480Z,64.68
2018-04-10T08:08:03.144Z,64.92
2018-04-10T08:10:30.761Z,64.74
2018-04-10T08:12:58.665Z,63.39
2018-04-10T08:15:26.637Z,63.54
2018-04-10T08:17:54.257Z,63.42
2018-04-10T08:20:21.899Z,62.98
2018-04-10T08:22:49.491Z,62.80
2018-04-10T08:25:17.101Z,62.66
2018-04-10T08:27:44.747Z,61.98
2018-04-10T08:30:12.611Z,61.38
2018-04-10T08:32:40.229Z,59.77
2018-04-10T08:35:07.887Z,60.17
2018-04-10T08:37:35.486Z,60.30
2018-04-10T08:40:03.151Z,59.59
2018-04-10T08:42:31.052Z,59.25
2018-04-10T08:44:58.723Z,59.10
2018-04-10T08:47:26.308Z,58.05
2018-04-10T08:49:53.943Z,58.19
2018-04-10T08:52:21.534Z,58.70
2018-04-10T08:54:49.207Z,58.68
2018-04-10T08:57:16.798Z,58.14
2018-04-10T08:59:44.393Z,57.66
2018-04-10T09:02:12.028Z,57.13
2018-04-10T09:04:39.662Z,56.69
2018-04-10T09:07:07.306Z,56.86
2018-04-10T09:09:34.892Z,56.73
2018-04-10T09:12:02.760Z,56.18
2018-04-10T09:14:30.352Z,55.75
2018-04-10T09:16:57.991Z,54.82
2018-04-10T09:19:25.662Z,55.01
2018-04-10T09:21:53.347Z,55.32
2018-04-10T09:24:20.945Z,54.86
2018-04-10T09:26:48.857Z,54.87
2018-04-10T09:29:17.381Z,53.96
2018-04-10T09:31:48.332Z,54.02
2018-04-10T09:34:15.965Z,53.80
2018-04-10T09:36:43.557Z,53.31
2018-04-10T09:39:11.188Z,53.35
2018-04-10T09:41:38.774Z,53.66
2018-04-10T09:44:06.388Z,53.08
2018-04-10T09:46:34.082Z,53.25
2018-04-10T09:49:02.043Z,53.54
2018-04-10T09:51:29.714Z,52.53
2018-04-10T09:53:57.331Z,53.45
2018-04-10T09:56:25.048Z,51.97
2018-04-10T09:58:52.701Z,52.41
2018-04-10T10:01:20.291Z,51.92
2018-04-10T10:03:47.967Z,51.76
2018-04-10T10:06:15.659Z,51.06
2018-04-10T10:08:43.263Z,50.61
2018-04-10T10:11:11.358Z,50.50
2018-04-10T10:13:39.055Z,49.13
2018-04-10T10:16:06.641Z,49.56
2018-04-10T10:18:34.285Z,49.65
2018-04-10T10:21:01.943Z,49.78
2018-04-10T10:23:29.592Z,47.97
2018-04-10T10:25:57.186Z,49.18
2018-04-10T10:28:24.800Z,48.58
2018-04-10T10:30:52.651Z,47.45
2018-04-10T10:33:20.250Z,46.92
2018-04-10T10:35:47.878Z,46.85
2018-04-10T10:38:15.494Z,46.61
2018-04-10T10:40:43.073Z,46.58
2018-04-10T10:43:10.724Z,46.62
2018-04-10T10:45:38.402Z,46.33
2018-04-10T10:48:06.002Z,45.25
2018-04-10T10:50:33.634Z,45.12
2018-04-10T10:53:01.240Z,45.60
2018-04-10T10:55:29.234Z,45.24
2018-04-10T10:57:56.829Z,44.99
2018-04-10T11:00:24.831Z,45.35
2018-04-10T11:02:52.448Z,44.91
2018-04-10T11:05:20.088Z,44.75
2018-04-10T11:07:48.048Z,45.08
2018-04-10T11:10:15.696Z,44.95
2018-04-10T11:12:43.284Z,44.73
2018-04-10T11:15:10.920Z,43.20
2018-04-10T11:17:38.562Z,42.62
2018-04-10T11:20:06.311Z,42.73
2018-04-10T11:22:33.904Z,41.78
2018-04-10T11:25:01.963Z,41.59
2018-04-10T11:27:30.243Z,41.16
2018-04-10T11:29:57.888Z,41.27
2018-04-10T11:32:25.558Z,41.31
2018-04-10T11:34:53.280Z,40.93
2018-04-10T11:37:20.894Z,41.10
2018-04-10T11:39:48.497Z,39.81
2018-04-10T11:42:16.420Z,39.88
2018-04-10T11:44:44.105Z,39.97
2018-04-10T11:47:11.759Z,40.37
2018-04-10T11:49:39.358Z,39.79
2018-04-10T11:52:06.984Z,40.13
2018-04-10T11:54:34.838Z,40.65
2018-04-10T11:57:02.698Z,40.16
2018-04-10T11:59:30.407Z,38.99
2018-04-10T12:01:58.019Z,38.49
2018-04-10T12:04:26.004Z,39.35
2018-04-10T12:06:53.966Z,39.18
2018-04-10T12:09:21.618Z,38.07
2018-04-10T12:11:49.493Z,38.05
2018-04-10T12:14:17.077Z,37.68
2018-04-10T12:16:44.704Z,37.24
2018-04-10T12:19:12.324Z,36.31
2018-04-10T12:21:40.024Z,36.67
2018-04-10T12:24:07.905Z,35.97
2018-04-10T12:26:35.929Z,36.80
2018-04-10T12:29:03.530Z,37.11
2018-04-10T12:31:31.185Z,36.41
2018-04-10T12:33:58.844Z,36.51
2018-04-10T12:36:26.437Z,36.84
2018-04-10T12:38:54.037Z,36.02
2018-04-10T12:41:21.648Z,35.04
2018-04-10T12:43:49.263Z,36.37
2018-04-10T12:46:16.892Z,36.17
2018-04-10T12:48:44.827Z,35.88
2018-04-10T12:51:12.425Z,35.17
2018-04-10T12:53:40.043Z,34.13
2018-04-10T12:56:07.700Z,34.27
2018-04-10T12:58:35.338Z,32.95
2018-04-10T13:01:03.205Z,34.39
2018-04-10T13:03:30.783Z,33.98
2018-04-10T13:05:58.438Z,34.63
2018-04-10T13:08:26.391Z,34.38
2018-04-10T13:10:54.006Z,35.32
2018-04-10T13:13:21.648Z,34.39
2018-04-10T13:15:49.636Z,34.32
2018-04-10T13:18:17.493Z,34.81
2018-04-10T13:20:45.114Z,35.12
2018-04-10T13:23:12.730Z,34.67
2018-04-10T13:25:40.697Z,35.09
2018-04-10T13:28:08.306Z,33.99
2018-04-10T13:30:36.003Z,34.13
2018-04-10T13:33:03.672Z,33.89
2018-04-10T13:35:31.302Z,33.47
2018-04-10T13:37:59.128Z,33.83
2018-04-10T13:40:26.741Z,33.43
2018-04-10T13:42:54.415Z,34.26
2018-04-10T13:45:22.047Z,33.82
2018-04-10T13:47:49.766Z,34.21
2018-04-10T13:50:17.383Z,33.82
2018-04-10T13:52:45.032Z,34.29
2018-04-10T13:55:12.622Z,33.35
2018-04-10T13:57:40.463Z,33.64
2018-04-10T14:00:08.098Z,34.04
2018-04-10T14:02:35.739Z,34.65
2018-04-10T14:05:03.400Z,34.52
2018-04-10T14:07:31.035Z,33.80
2018-04-10T14:09:58.639Z,33.67
2018-04-10T14:12:26.647Z,34.55
2018-04-10T14:14:54.298Z,33.98
2018-04-10T14:17:22.017Z,33.03
2018-04-10T14:19:49.678Z,33.60
2018-04-10T14:22:17.338Z,33.40
2018-04-10T14:24:44.953Z,33.06
2018-04-10T14:27:12.580Z,32.84
2018-04-10T14:29:40.198Z,33.67
2018-04-10T14:32:07.865Z,32.96
2018-04-10T14:34:35.534Z,33.43
2018-04-10T14:37:03.314Z,33.49
2018-04-10T14:39:31.008Z,32.84
2018-04-10T14:41:58.655Z,34.20
2018-04-10T14:44:26.344Z,33.75
2018-04-10T14:46:58.081Z,34.54
2018-04-10T14:49:29.507Z,34.38
2018-04-10T14:51:57.551Z,33.99
2018-04-10T14:54:25.144Z,33.94
2018-04-10T14:56:53.006Z,33.89
2018-04-10T14:59:20.651Z,33.31
2018-04-10T15:01:48.293Z,34.20
2018-04-10T15:04:15.907Z,34.85
2018-04-10T15:06:43.556Z,34.98
2018-04-10T15:09:11.167Z,34.30
2018-04-10T15:11:38.881Z,33.63
2018-04-10T15:14:06.470Z,33.69
2018-04-10T15:16:34.480Z,32.62
2018-04-10T15:19:02.169Z,33.21
2018-04-10T15:21:29.770Z,33.14
2018-04-10T15:23:57.488Z,33.37
2018-04-10T15:26:25.135Z,33.77
2018-04-10T15:28:52.732Z,33.85
2018-04-10T15:31:20.339Z,34.01
2018-04-10T15:33:48.018Z,34.76
2018-04-10T15:36:15.683Z,35.99
2018-04-10T15:38:43.796Z,37.19
2018-04-10T15:41:11.395Z,36.32
2018-04-10T15:43:39.005Z,36.32
2018-04-10T15:46:06.720Z,36.51
2018-04-10T15:48:34.426Z,36.43
2018-04-10T15:51:02.043Z,37.60
2018-04-10T15:53:29.733Z,38.46
2018-04-10T15:55:57.367Z,38.07
2018-04-10T15:58:24.990Z,38.61
2018-04-10T16:00:52.869Z,38.71
2018-04-10T16:03:20.641Z,39.18
2018-04-10T16:05:48.226Z,38.99
2018-04-10T16:08:15.870Z,39.03
2018-04-10T16:10:43.533Z,39.19
2018-04-10T16:13:11.132Z,39.07
2018-04-10T16:15:38.835Z,39.79
2018-04-10T16:18:06.496Z,40.20
2018-04-10T16:20:34.096Z,40.76
2018-04-10T16:23:01.706Z,41.59
2018-04-10T16:25:29.425Z,42.79
2018-04-10T16:27:57.033Z,43.70
2018-04-10T16:30:24.630Z,44.62
2018-04-10T16:32:52.313Z,45.19
2018-04-10T16:35:19.917Z,45.71
2018-04-10T16:37:47.664Z,45.83
2018-04-10T16:40:15.604Z,46.19
2018-04-10T16:42:43.518Z,46.14
2018-04-10T16:45:11.152Z,46.36
2018-04-10T16:47:38.761Z,46.81
2018-04-10T16:50:06.757Z,46.86
2018-04-10T16:52:34.692Z,47.45
2018-04-10T16:55:02.291Z,47.21
2018-04-10T16:57:29.913Z,47.58
2018-04-10T16:59:57.520Z,47.71
2018-04-10T17:02:25.233Z,48.16
2018-04-10T17:04:52.832Z,48.21
2018-04-10T17:07:20.483Z,48.58
2018-04-10T17:09:48.184Z,48.84
2018-04-10T17:12:15.792Z,48.90
2018-04-10T17:14:43.490Z,49.63
2018-04-10T17:17:11.180Z,49.63
2018-04-10T17:19:38.779Z,49.91
2018-04-10T17:22:06.655Z,50.20
2018-04-10T17:24:34.304Z,50.48
2018-04-10T17:27:01.925Z,50.49
2018-04-10T17:29:29.547Z,50.89
2018-04-10T17:31:58.176Z,51.20
2018-04-10T17:34:25.839Z,51.45
2018-04-10T17:36:53.447Z,51.74
2018-04-10T17:39:21.160Z,51.97
2018-04-10T17:41:48.835Z,52.00
2018-04-10T17:44:16.521Z,52.05
2018-04-10T17:46:44.290Z,52.37
2018-04-10T17:49:11.891Z,52.85
2018-04-10T17:51:39.589Z,53.39
2018-04-10T17:54:07.328Z,54.07
2018-04-10T17:56:34.971Z,54.27
2018-04-10T17:59:02.575Z,54.42
2018-04-10T18:01:30.282Z,54.63
2018-04-10T18:03:57.972Z,54.62
2018-04-10T18:06:25.579Z,54.68
2018-04-10T18:08:53.225Z,55.23
2018-04-10T18:11:20.808Z,55.29
2018-04-10T18:13:50.895Z,56.23
2018-04-10T18:16:18.487Z,56.11
2018-04-10T18:18:46.343Z,56.32
2018-04-10T18:21:14.114Z,56.56
2018-04-10T18:23:41.936Z,56.73
2018-04-10T18:26:09.619Z,57.08
2018-04-10T18:28:37.325Z,57.71
2018-04-10T18:31:04.941Z,57.86
2018-04-10T18:33:32.527Z,58.06
2018-04-10T18:36:00.191Z,58.36
2018-04-10T18:38:27.822Z,58.34
2018-04-10T18:40:55.485Z,58.41
2018-04-10T18:43:23.087Z,58.46
2018-04-10T18:45:51.036Z,58.63
2018-04-10T18:48:18.636Z,58.65
2018-04-10T18:50:46.297Z,58.65
2018-04-10T18:53:14.010Z,59.15
2018-04-10T18:55:41.630Z,59.47
2018-04-10T18:58:09.256Z,59.92
2018-04-10T19:00:36.846Z,59.85
2018-04-10T19:03:04.884Z,60.09
2018-04-10T19:05:32.478Z,60.49
2018-04-10T19:08:00.095Z,60.45
2018-04-10T19:10:27.745Z,60.49
2018-04-10T19:12:55.392Z,60.66
2018-04-10T19:15:23.070Z,60.83
2018-04-10T19:17:50.770Z,60.81
2018-04-10T19:20:18.718Z,61.36
2018-04-10T19:22:46.363Z,61.56
2018-04-10T19:25:13.975Z,61.75
2018-04-10T19:27:42.010Z,61.87
2018-04-10T19:30:09.612Z,61.72
2018-04-10T19:32:37.218Z,62.27
2018-04-10T19:35:04.886Z,62.07
2018-04-10T19:37:32.769Z,62.31
2018-04-10T19:40:00.356Z,62.39
2018-04-10T19:42:27.976Z,62.75
2018-04-10T19:44:55.590Z,62.85
2018-04-10T19:47:23.243Z,63.34
2018-04-10T19:49:50.919Z,63.52
2018-04-10T19:52:19.870Z,64.46
2018-04-10T19:54:47.843Z,64.63
2018-04-10T19:57:15.905Z,64.67
2018-04-10T19:59:43.639Z,64.48
2018-04-10T20:02:11.713Z,64.62
2018-04-10T20:04:39.294Z,64.37
2018-04-10T20:07:06.881Z,64.54
2018-04-10T20:09:34.551Z,64.60
2018-04-10T20:12:02.207Z,64.61
2018-04-10T20:14:30.159Z,64.63
2018-04-10T20:16:57.878Z,64.69
2018-04-10T20:19:25.550Z,65.40
2018-04-10T20:21:53.147Z,66.00
2018-04-10T20:24:21.046Z,65.91
2018-04-10T20:26:48.642Z,66.01
2018-04-10T20:29:16.221Z,66.32
2018-04-10T20:31:43.849Z,66.59
2018-04-10T20:34:11.464Z,66.69
2018-04-10T20:36:39.429Z,66.62
2018-04-10T20:39:07.058Z,66.62
2018-04-10T20:41:35.573Z,66.99
2018-04-10T20:44:03.520Z,67.10
2018-04-10T20:46:31.121Z,67.20
2018-04-10T20:48:58.770Z,67.47
2018-04-10T20:51:26.419Z,67.83
2018-04-10T20:53:54.413Z,67.42
2018-04-10T20:56:22.001Z,67.92
2018-04-10T20:58:49.599Z,68.01
2018-04-10T21:01:17.283Z,68.52
2018-04-10T21:03:45.135Z,68.92
2018-04-10T21:06:12.750Z,69.35
2018-04-10T21:08:40.357Z,69.96
2018-04-10T21:11:07.993Z,70.45
2018-04-10T21:13:36.592Z,70.01
2018-04-10T21:16:04.283Z,70.13
2018-04-10T21:18:31.870Z,70.25
2018-04-10T21:20:59.484Z,70.27
2018-04-10T21:23:27.171Z,70.48
2018-04-10T21:25:55.086Z,70.23
2018-04-10T21:28:22.676Z,70.25
2018-04-10T21:30:50.368Z,71.08
2018-04-10T21:33:18.390Z,71.00
2018-04-10T21:35:46.014Z,71.01
2018-04-10T21:38:13.598Z,71.06
2018-04-10T21:40:41.229Z,71.09
2018-04-10T21:43:14.438Z,71.57
2018-04-10T21:45:42.705Z,71.45
2018-04-10T21:48:10.320Z,71.95
2018-04-10T21:50:37.955Z,71.93
2018-04-10T21:53:05.652Z,72.13
2018-04-10T21:55:33.626Z,72.31
2018-04-10T21:58:01.323Z,72.20
2018-04-10T22:00:29.072Z,72.27
2018-04-10T22:02:56.686Z,72.30
2018-04-10T22:05:24.567Z,72.60
2018-04-10T22:07:52.216Z,72.90
2018-04-10T22:10:19.803Z,73.03
2018-04-10T22:12:47.463Z,72.97
2018-04-10T22:15:15.063Z,73.01
2018-04-10T22:17:42.659Z,73.14
2018-04-10T22:20:10.504Z,73.44
2018-04-10T22:22:43.577Z,73.85
2018-04-10T22:25:11.451Z,74.37
2018-04-10T22:27:39.148Z,74.36
2018-04-10T22:30:06.750Z,74.35
2018-04-10T22:32:34.350Z,74.72
2018-04-10T22:35:01.969Z,75.18
2018-04-10T22:37:29.625Z,74.76
2018-04-10T22:39:57.233Z,74.57
2018-04-10T22:42:24.971Z,74.90
2018-04-10T22:44:52.671Z,74.64
2018-04-10T22:47:20.301Z,74.84
2018-04-10T22:49:48.327Z,75.44
2018-04-10T22:52:15.993Z,75.50
2018-04-10T22:54:43.949Z,75.42
2018-04-10T22:57:11.582Z,75.49
2018-04-10T22:59:39.193Z,75.36
2018-04-10T23:02:06.857Z,75.57
2018-04-10T23:04:34.457Z,76.05
2018-04-10T23:07:02.062Z,75.89
2018-04-10T23:09:29.944Z,76.32
2018-04-10T23:11:57.923Z,76.19
2018-04-10T23:14:25.735Z,76.07
2018-04-10T23:16:53.676Z,76.46
2018-04-10T23:19:21.630Z,76.42
2018-04-10T23:21:49.242Z,76.86
2018-04-10T23:24:16.980Z,76.73
2018-04-10T23:26:44.726Z,76.81
2018-04-10T23:29:12.591Z,77.15
2018-04-10T23:31:40.377Z,76.92
2018-04-10T23:34:08.103Z,76.75
2018-04-10T23:36:35.818Z,77.38
2018-04-10T23:39:03.508Z,77.71
2018-04-10T23:41:31.275Z,77.58
2018-04-10T23:43:59.396Z,77.35
2018-04-10T23:46:27.189Z,77.25
2018-04-10T23:48:54.932Z,77.69
2018-04-10T23:51:22.562Z,77.53
2018-04-10T23:53:50.178Z,77.33
2018-04-10T23:56:17.872Z,77.63
2018-04-10T23:58:45.593Z,78.15
